Terminal Aerodrome Forecast
Issued by NWS

Home | Current Version | Previous Version | Text Only | Print | Product List | Glossary Off
Versions: 1 2 3 4 5 6 7 8 9 10 11 12 13 14 15

000
FTUS43 KMPX 202200 AAB
TAFRWF
TAF AMD
KRWF 202220Z 2022/2118 34012G20KT P6SM -SHRA SCT030 OVC060
     FM210000 31009KT P6SM SCT045 BKN120
     FM210400 30008KT P6SM SCT120=

USA.gov is the U.S. government's official web portal to all federal, state and local government web resources and services.